createdAt,value
2019-01-13T00:29:55.807Z,1.10
2019-01-13T00:59:39.584Z,1.80
2019-01-13T13:28:32.936Z,0.20
2019-01-13T14:20:56.681Z,0.20
2019-01-13T18:27:22.277Z,2.40
2019-01-13T19:07:11.436Z,4.87
2019-01-13T19:33:28.656Z,2.77
2019-01-13T19:49:34.892Z,3.93
2019-01-13T19:52:42.240Z,1.57
2019-01-13T21:53:50.079Z,7.43
2019-01-13T22:03:13.531Z,5.80
2019-01-13T22:05:43.984Z,1.63
2019-01-13T22:08:14.528Z,1.53
2019-01-13T22:10:45.093Z,2.47
2019-01-13T22:13:15.486Z,2.20
2019-01-13T22:15:45.979Z,1.33
2019-01-13T22:18:16.532Z,0.63
2019-01-13T22:20:47.127Z,0.10
2019-01-13T22:23:17.619Z,0.50
2019-01-13T22:25:48.061Z,0.40
2019-01-13T22:28:18.537Z,0.90
2019-01-13T22:30:48.976Z,0.10
2019-01-13T22:33:19.743Z,0.00
2019-01-13T22:35:50.269Z,2.00
2019-01-13T22:38:20.801Z,1.03
2019-01-13T22:40:51.223Z,0.27
2019-01-13T22:43:21.664Z,0.57
2019-01-13T22:45:52.169Z,0.70
2019-01-13T22:48:22.695Z,1.90
2019-01-13T22:50:53.200Z,2.03
2019-01-13T22:53:23.786Z,4.03
2019-01-13T22:55:54.295Z,1.57
2019-01-13T22:58:24.809Z,1.67
2019-01-13T23:01:35.724Z,4.37
2019-01-13T23:04:10.856Z,2.37
2019-01-13T23:06:41.418Z,2.97
2019-01-13T23:09:12.931Z,1.07
2019-01-13T23:11:43.308Z,4.47
2019-01-13T23:14:14.758Z,2.83
2019-01-13T23:16:45.052Z,4.00
2019-01-13T23:19:15.546Z,4.97
2019-01-13T23:21:46.915Z,4.07
2019-01-13T23:24:17.339Z,8.27
2019-01-13T23:26:47.747Z,4.50
2019-01-13T23:29:18.206Z,6.93
2019-01-13T23:31:48.657Z,7.37
2019-01-13T23:34:19.125Z,6.23
2019-01-13T23:36:49.597Z,7.97
2019-01-13T23:39:19.934Z,4.67
2019-01-13T23:41:50.392Z,9.00
2019-01-13T23:44:20.945Z,9.00
2019-01-13T23:46:51.737Z,6.70
2019-01-13T23:49:22.435Z,5.00
2019-01-13T23:51:52.997Z,4.67
2019-01-13T23:54:23.517Z,5.13
2019-01-13T23:56:53.841Z,4.07
2019-01-13T23:59:24.371Z,3.10
